Time;durP1;ratioP1;P1;durP2;ratioP2;P2;SDS_P1;SDS_P2;PMS_P1;PMS_P2;Temp;Humidity;BMP_temperature;BMP_pressure;BME280_temperature;BME280_humidity;BME280_pressure;Samples;Min_cycle;Max_cycle;Signal;HPM_P1;HPM_P2
2021/09/04 00:01:44;;;;;;;19.13;11.13;;;11.40;99.90;;;;;;4371007;28;659157;-67
2021/09/04 00:04:31;;;;;;;25.57;11.63;;;11.30;99.90;;;;;;4392041;28;658735;-67
2021/09/04 00:07:19;;;;;;;20.73;11.53;;;11.30;99.90;;;;;;4374341;28;659032;-67
2021/09/04 00:10:09;;;;;;;19.03;11.40;;;11.20;99.90;;;;;;4392531;28;658422;-67
2021/09/04 00:12:56;;;;;;;20.70;11.67;;;11.30;99.90;;;;;;4370082;28;659069;-67
2021/09/04 00:15:44;;;;;;;20.27;11.03;;;11.30;99.90;;;;;;4374213;28;659332;-67
2021/09/04 00:18:34;;;;;;;19.05;10.80;;;11.30;99.90;;;;;;4392526;28;658171;-67
2021/09/04 00:21:21;;;;;;;27.77;12.13;;;11.30;99.90;;;;;;4369994;28;659323;-67
2021/09/04 00:24:09;;;;;;;20.80;10.80;;;11.30;99.90;;;;;;4374127;28;660189;-67
2021/09/04 00:26:58;;;;;;;21.33;10.57;;;11.40;99.90;;;;;;4392484;28;659025;-67
2021/09/04 00:29:46;;;;;;;19.73;11.03;;;11.40;99.90;;;;;;4370078;28;659489;-67
2021/09/04 00:32:33;;;;;;;22.87;12.80;;;11.40;99.90;;;;;;4374514;28;658515;-67
2021/09/04 00:35:21;;;;;;;22.03;12.00;;;11.50;99.90;;;;;;4392420;28;659158;-67
2021/09/04 00:38:08;;;;;;;20.20;11.80;;;11.40;99.90;;;;;;4373974;28;658507;-67
2021/09/04 00:40:57;;;;;;;20.97;11.60;;;11.40;99.90;;;;;;4392198;28;659372;-67
2021/09/04 00:43:46;;;;;;;20.70;12.20;;;11.40;99.90;;;;;;4369757;28;659501;-67
2021/09/04 00:46:34;;;;;;;19.23;11.40;;;11.40;99.90;;;;;;4373627;28;658768;-67
2021/09/04 00:49:21;;;;;;;19.80;10.90;;;11.30;99.90;;;;;;4392075;28;659263;-67
2021/09/04 00:52:09;;;;;;;20.80;11.83;;;11.30;99.90;;;;;;4373877;28;658704;-67
2021/09/04 00:54:56;;;;;;;22.70;12.00;;;11.30;99.90;;;;;;4392132;28;659036;-67
2021/09/04 00:57:44;;;;;;;18.20;12.10;;;11.30;99.90;;;;;;4374016;28;658829;-67
2021/09/04 01:00:33;;;;;;;21.33;11.50;;;11.30;99.90;;;;;;4392720;28;658832;-67
2021/09/04 01:03:21;;;;;;;24.83;11.57;;;11.30;99.90;;;;;;4369492;28;659154;-67
2021/09/04 01:06:09;;;;;;;21.73;12.30;;;11.20;99.90;;;;;;4363898;28;660280;-67
2021/09/04 01:08:57;;;;;;;22.33;12.33;;;11.20;99.90;;;;;;4392103;28;658240;-67
2021/09/04 01:11:44;;;;;;;21.40;11.47;;;11.20;99.90;;;;;;4369867;28;660232;-67
2021/09/04 01:14:32;;;;;;;22.37;12.27;;;11.20;99.90;;;;;;4392436;28;658530;-67
2021/09/04 01:17:21;;;;;;;18.70;11.23;;;11.20;99.90;;;;;;4369517;28;660820;-67
2021/09/04 01:20:12;;;;;;;23.43;11.33;;;11.10;99.90;;;;;;4370485;28;658603;-67
2021/09/04 01:23:00;;;;;;;24.20;12.93;;;11.10;99.90;;;;;;4374432;28;659523;-67
2021/09/04 01:25:52;;;;;;;23.97;13.43;;;11.00;99.90;;;;;;4372821;28;659233;-67
2021/09/04 01:28:41;;;;;;;23.00;11.87;;;11.00;99.90;;;;;;4368988;28;659293;-67
2021/09/04 01:31:29;;;;;;;28.40;12.05;;;10.90;99.90;;;;;;4372878;28;658688;-67
2021/09/04 01:34:16;;;;;;;20.80;12.23;;;10.90;99.90;;;;;;4391617;28;658773;-67
2021/09/04 01:37:04;;;;;;;24.10;12.43;;;10.80;99.90;;;;;;4372961;28;658699;-67
2021/09/04 01:39:52;;;;;;;22.23;12.13;;;10.80;99.90;;;;;;4391663;28;659070;-67
2021/09/04 01:42:39;;;;;;;27.77;12.20;;;10.80;99.90;;;;;;4369036;28;660087;-67
2021/09/04 01:45:29;;;;;;;18.73;11.27;;;10.80;99.90;;;;;;4388036;28;658647;-67
2021/09/04 01:48:16;;;;;;;25.80;12.80;;;10.70;99.90;;;;;;4391180;28;659191;-67
2021/09/04 01:51:04;;;;;;;22.33;11.77;;;10.70;99.90;;;;;;4373197;28;658280;-67
2021/09/04 01:53:51;;;;;;;27.90;12.67;;;10.60;99.90;;;;;;4391365;28;658550;-67
2021/09/04 01:56:39;;;;;;;22.80;12.20;;;10.60;99.90;;;;;;4373063;28;658791;-67
2021/09/04 01:59:26;;;;;;;22.60;12.70;;;10.50;99.90;;;;;;4391648;28;658547;-67
2021/09/04 02:02:15;;;;;;;24.90;13.13;;;10.50;99.90;;;;;;4373573;28;659946;-68
2021/09/04 02:05:03;;;;;;;31.63;13.43;;;10.50;99.90;;;;;;4372701;28;658391;-68
2021/09/04 02:07:50;;;;;;;23.27;14.00;;;10.40;99.90;;;;;;4391254;28;658941;-68
2021/09/04 02:10:38;;;;;;;26.50;13.87;;;10.40;99.90;;;;;;4372619;28;658708;-67
2021/09/04 02:13:26;;;;;;;25.23;14.50;;;10.40;99.90;;;;;;4391514;28;659736;-67
2021/09/04 02:16:13;;;;;;;26.90;14.47;;;10.30;99.90;;;;;;4371397;28;658688;-67
2021/09/04 02:19:02;;;;;;;34.03;14.90;;;10.30;99.90;;;;;;4390932;28;659122;-67
2021/09/04 02:21:49;;;;;;;23.37;13.63;;;10.30;99.90;;;;;;4372673;28;659081;-67
2021/09/04 02:24:37;;;;;;;24.47;14.70;;;10.30;99.90;;;;;;4383093;28;658674;-67
2021/09/04 02:27:25;;;;;;;25.73;14.83;;;10.20;99.90;;;;;;4390939;28;659863;-67
2021/09/04 02:30:13;;;;;;;30.77;15.27;;;10.20;99.90;;;;;;4372066;28;659146;-67
2021/09/04 02:33:01;;;;;;;32.90;16.23;;;10.20;99.90;;;;;;4393171;28;659298;-67
2021/09/04 02:35:49;;;;;;;35.33;16.67;;;10.10;99.90;;;;;;4375604;28;658881;-67
2021/09/04 02:38:37;;;;;;;32.80;16.30;;;10.10;99.90;;;;;;4383664;28;659330;-67
2021/09/04 02:41:25;;;;;;;31.63;17.23;;;10.10;99.90;;;;;;4397941;28;659969;-67
2021/09/04 02:44:13;;;;;;;33.77;19.13;;;10.00;99.90;;;;;;4375479;28;658653;-67
2021/09/04 02:47:00;;;;;;;35.10;17.63;;;10.00;99.90;;;;;;4393278;28;659448;-67
2021/09/04 02:49:48;;;;;;;30.97;17.70;;;10.00;99.90;;;;;;4374977;28;658728;-68
2021/09/04 02:52:37;;;;;;;33.03;18.13;;;10.00;99.90;;;;;;4394126;28;659588;-67
2021/09/04 02:55:24;;;;;;;33.80;19.23;;;9.90;99.90;;;;;;4371702;28;660172;-68
2021/09/04 02:58:12;;;;;;;43.53;21.87;;;9.80;99.90;;;;;;4393122;28;657518;-67
2021/09/04 03:01:02;;;;;;;39.53;21.97;;;9.80;99.90;;;;;;4395619;28;659575;-67
2021/09/04 03:03:49;;;;;;;40.03;20.90;;;9.80;99.90;;;;;;4376213;28;658405;-67
2021/09/04 03:06:37;;;;;;;40.87;20.43;;;9.80;99.90;;;;;;4390891;28;657550;-67
2021/09/04 03:09:26;;;;;;;44.33;20.97;;;9.80;99.90;;;;;;4399058;28;658853;-67
2021/09/04 03:12:14;;;;;;;34.13;19.30;;;9.80;99.90;;;;;;4375966;28;658388;-67
2021/09/04 03:15:01;;;;;;;35.00;19.63;;;9.80;99.90;;;;;;4425177;28;658094;-67
2021/09/04 03:17:49;;;;;;;30.40;18.17;;;9.80;99.90;;;;;;4372579;28;658980;-67
2021/09/04 03:20:37;;;;;;;36.90;19.33;;;9.70;99.90;;;;;;4394521;28;657813;-67
2021/09/04 03:23:24;;;;;;;36.00;20.07;;;9.70;99.90;;;;;;4372061;28;658802;-68
2021/09/04 03:26:13;;;;;;;34.70;19.93;;;9.60;99.90;;;;;;4395487;28;657707;-68
2021/09/04 03:29:01;;;;;;;39.50;19.27;;;9.60;99.90;;;;;;4372102;28;658871;-67
2021/09/04 03:31:48;;;;;;;41.45;20.38;;;9.60;99.90;;;;;;4371491;28;657378;-67
2021/09/04 03:34:36;;;;;;;35.33;20.03;;;9.60;99.90;;;;;;4394221;28;658301;-68
2021/09/04 03:37:23;;;;;;;34.70;20.10;;;9.60;99.90;;;;;;4372499;28;658164;-68
2021/09/04 03:40:11;;;;;;;33.30;18.50;;;9.60;99.90;;;;;;4394115;28;658457;-67
2021/09/04 03:43:00;;;;;;;33.57;18.97;;;9.60;99.90;;;;;;4375540;28;658140;-68
2021/09/04 03:45:48;;;;;;;39.87;19.07;;;9.50;99.90;;;;;;4375216;28;657428;-68
2021/09/04 03:48:35;;;;;;;35.60;19.55;;;9.50;99.90;;;;;;4394120;28;658791;-68
2021/09/04 03:51:23;;;;;;;38.97;19.20;;;9.60;99.90;;;;;;4374257;28;657757;-67
2021/09/04 03:54:10;;;;;;;32.97;18.60;;;9.50;99.90;;;;;;4393980;28;658674;-67
2021/09/04 03:56:58;;;;;;;30.93;18.37;;;9.50;99.90;;;;;;4372914;28;657874;-67
2021/09/04 03:59:47;;;;;;;34.13;18.77;;;9.50;99.90;;;;;;4394970;28;658139;-67
2021/09/04 04:02:34;;;;;;;38.20;19.53;;;9.50;99.90;;;;;;4375547;28;658564;-67
2021/09/04 04:05:23;;;;;;;34.73;19.57;;;9.50;99.90;;;;;;4391064;28;657559;-67
2021/09/04 04:08:10;;;;;;;33.95;19.50;;;9.50;99.90;;;;;;4396594;28;657893;-67
2021/09/04 04:11:05;;;;;;;35.03;20.00;;;9.50;99.90;;;;;;4375368;28;657729;-67
2021/09/04 04:13:52;;;;;;;36.25;20.70;;;9.50;99.90;;;;;;4375817;28;657596;-67
2021/09/04 04:16:41;;;;;;;33.67;19.70;;;9.50;99.90;;;;;;4394956;28;659026;-67
2021/09/04 04:19:29;;;;;;;33.33;18.87;;;9.60;99.90;;;;;;4375674;28;658111;-67
2021/09/04 04:22:16;;;;;;;34.13;18.43;;;9.60;99.90;;;;;;4397904;28;657328;-67
2021/09/04 04:25:04;;;;;;;35.07;19.50;;;9.60;99.90;;;;;;4375154;28;657445;-67
2021/09/04 04:27:51;;;;;;;36.60;20.13;;;9.60;99.90;;;;;;4394040;28;657874;-67
2021/09/04 04:30:39;;;;;;;36.67;20.60;;;9.60;99.90;;;;;;4375003;28;657727;-67
2021/09/04 04:33:28;;;;;;;40.07;19.67;;;9.60;99.90;;;;;;4393555;28;658038;-67
2021/09/04 04:36:15;;;;;;;35.73;20.90;;;9.70;99.90;;;;;;4370478;28;658454;-67
2021/09/04 04:39:03;;;;;;;40.73;21.13;;;9.70;99.90;;;;;;4368607;28;657675;-67
2021/09/04 04:41:50;;;;;;;41.50;24.57;;;9.80;99.90;;;;;;4393908;28;658661;-67
2021/09/04 04:44:38;;;;;;;40.20;21.83;;;9.80;99.90;;;;;;4375086;28;657864;-67
2021/09/04 04:47:26;;;;;;;40.90;23.17;;;9.90;99.90;;;;;;4393410;28;658583;-67
2021/09/04 04:50:15;;;;;;;39.47;21.77;;;9.90;99.90;;;;;;4374961;28;657686;-67
2021/09/04 04:53:03;;;;;;;36.20;21.97;;;10.00;99.90;;;;;;4374953;28;657414;-67
2021/09/04 04:55:50;;;;;;;36.27;21.97;;;10.10;99.90;;;;;;4391386;28;659907;-67
2021/09/04 04:58:38;;;;;;;45.63;23.70;;;10.20;99.90;;;;;;4371297;28;658905;-67
2021/09/04 05:01:25;;;;;;;52.93;22.97;;;10.30;99.90;;;;;;4392132;28;659960;-68
2021/09/04 05:04:13;;;;;;;43.30;22.93;;;10.30;99.90;;;;;;4373508;28;659195;-67
2021/09/04 05:07:02;;;;;;;43.17;22.63;;;10.50;99.90;;;;;;4393143;28;659710;-67
2021/09/04 05:09:50;;;;;;;37.37;22.17;;;10.60;99.90;;;;;;4370011;28;659104;-67
2021/09/04 05:12:37;;;;;;;38.67;21.93;;;10.70;99.90;;;;;;4373391;28;658511;-67
2021/09/04 05:15:25;;;;;;;47.10;25.53;;;10.80;99.90;;;;;;4394584;28;659672;-67
2021/09/04 05:18:12;;;;;;;50.37;28.20;;;11.00;99.90;;;;;;4372908;28;658785;-68
2021/09/04 05:21:00;;;;;;;51.40;30.93;;;11.20;99.90;;;;;;4395102;28;659244;-67
2021/09/04 05:23:49;;;;;;;56.60;34.30;;;11.40;99.90;;;;;;4372956;28;658572;-68
2021/09/04 05:26:37;;;;;;;47.07;27.13;;;11.50;99.90;;;;;;4396365;28;658303;-67
2021/09/04 05:29:24;;;;;;;58.30;26.67;;;11.80;99.90;;;;;;4373585;28;659352;-68
2021/09/04 05:32:12;;;;;;;48.80;24.67;;;11.90;99.90;;;;;;4374971;28;658359;-67
2021/09/04 05:35:00;;;;;;;48.70;25.97;;;12.20;99.90;;;;;;4392201;28;660153;-68
2021/09/04 05:37:48;;;;;;;42.40;23.80;;;12.30;99.90;;;;;;4372840;28;658389;-68
2021/09/04 05:40:37;;;;;;;47.93;23.80;;;12.50;99.90;;;;;;4392354;28;658549;-68
2021/09/04 05:43:24;;;;;;;50.10;24.67;;;12.70;99.90;;;;;;4370431;28;659144;-68
2021/09/04 05:46:12;;;;;;;40.13;24.03;;;12.80;99.90;;;;;;4381262;28;659100;-68
2021/09/04 05:49:00;;;;;;;45.73;24.10;;;12.90;99.90;;;;;;4395632;28;659504;-68
2021/09/04 05:51:47;;;;;;;42.77;24.50;;;13.00;99.90;;;;;;4372693;28;658408;-68
2021/09/04 05:54:35;;;;;;;43.97;23.93;;;13.10;99.90;;;;;;4391743;28;659596;-68
2021/09/04 05:57:24;;;;;;;44.23;23.67;;;13.20;99.90;;;;;;4372241;28;658627;-68
2021/09/04 06:00:13;;;;;;;42.10;23.53;;;13.30;99.90;;;;;;4385856;28;658424;-68
2021/09/04 06:03:01;;;;;;;51.30;25.33;;;13.40;99.90;;;;;;4392172;28;658815;-68
2021/09/04 06:05:48;;;;;;;43.37;24.47;;;13.60;99.90;;;;;;4358248;28;658400;-68
2021/09/04 06:08:36;;;;;;;45.77;24.60;;;13.60;99.90;;;;;;4381049;28;659285;-68
2021/09/04 06:11:23;;;;;;;42.80;24.80;;;13.80;99.90;;;;;;4359052;28;658571;-68
2021/09/04 06:14:12;;;;;;;45.57;23.93;;;13.90;99.90;;;;;;4376734;28;658990;-68
2021/09/04 06:17:00;;;;;;;44.77;26.03;;;14.00;99.90;;;;;;4355120;28;660365;-68
2021/09/04 06:19:47;;;;;;;46.03;24.73;;;14.10;99.90;;;;;;4359682;28;658865;-68
2021/09/04 06:22:35;;;;;;;40.97;25.93;;;14.10;99.90;;;;;;4376484;28;659734;-68
2021/09/04 06:25:22;;;;;;;53.00;26.03;;;14.30;99.90;;;;;;4357381;28;658333;-68
2021/09/04 06:28:11;;;;;;;44.37;25.93;;;14.50;99.90;;;;;;4382252;28;659589;-68
2021/09/04 06:31:00;;;;;;;42.33;25.57;;;14.60;99.90;;;;;;4357438;28;658845;-68
2021/09/04 06:33:47;;;;;;;44.80;26.07;;;14.70;99.90;;;;;;4358009;28;658727;-68
2021/09/04 06:36:35;;;;;;;49.53;24.30;;;14.80;99.90;;;;;;4376300;28;660372;-68
2021/09/04 06:39:22;;;;;;;52.30;25.67;;;15.00;99.90;;;;;;4359355;28;658590;-68
2021/09/04 06:42:10;;;;;;;42.30;23.87;;;15.00;99.90;;;;;;4380836;28;660278;-68
2021/09/04 06:44:57;;;;;;;42.57;24.43;;;15.20;99.90;;;;;;4357325;28;659129;-68
2021/09/04 06:47:46;;;;;;;40.70;25.37;;;15.30;99.90;;;;;;4380700;28;657927;-68
2021/09/04 06:50:34;;;;;;;37.53;22.80;;;15.30;99.90;;;;;;4355973;28;659302;-68
2021/09/04 06:53:21;;;;;;;42.03;23.70;;;15.50;99.90;;;;;;4376585;28;658964;-68
2021/09/04 06:56:09;;;;;;;40.83;24.33;;;15.60;99.90;;;;;;4353521;28;659764;-68
2021/09/04 06:58:57;;;;;;;42.07;22.90;;;15.80;99.90;;;;;;4371255;28;658570;-68
2021/09/04 07:01:45;;;;;;;34.67;21.93;;;16.00;99.90;;;;;;4378555;28;659814;-68
2021/09/04 07:04:34;;;;;;;36.40;21.97;;;16.20;99.90;;;;;;4366922;28;658549;-68
2021/09/04 07:07:22;;;;;;;37.13;22.60;;;16.30;99.90;;;;;;4393535;28;659000;-68
2021/09/04 07:10:10;;;;;;;36.97;21.20;;;16.30;99.90;;;;;;4371027;28;659989;-68
2021/09/04 07:12:58;;;;;;;35.23;20.13;;;16.40;99.90;;;;;;4374707;28;658612;-68
2021/09/04 07:15:45;;;;;;;36.67;20.40;;;16.40;99.90;;;;;;4396132;28;658898;-68
2021/09/04 07:18:33;;;;;;;38.03;21.17;;;16.40;99.90;;;;;;4373879;28;658372;-68
2021/09/04 07:21:22;;;;;;;32.73;20.63;;;16.40;99.90;;;;;;4393215;28;660241;-68
2021/09/04 07:24:09;;;;;;;36.40;20.30;;;16.50;99.90;;;;;;4374826;28;659227;-68
2021/09/04 07:26:57;;;;;;;38.73;22.70;;;16.60;99.90;;;;;;4384100;28;659239;-68
2021/09/04 07:29:45;;;;;;;37.60;21.67;;;16.60;99.90;;;;;;4397778;28;659881;-68
2021/09/04 07:32:33;;;;;;;35.80;20.47;;;16.80;99.90;;;;;;4375047;28;658761;-67
2021/09/04 07:35:20;;;;;;;31.27;19.00;;;17.10;99.90;;;;;;4395351;28;658880;-68
2021/09/04 07:38:09;;;;;;;34.00;20.00;;;17.40;99.90;;;;;;4374478;28;658809;-68
2021/09/04 07:40:57;;;;;;;33.07;20.03;;;17.40;64.90;;;;;;4387645;28;658926;-68
2021/09/04 07:43:45;;;;;;;37.00;20.80;;;17.50;73.10;;;;;;4396616;28;660007;-67
2021/09/04 07:46:33;;;;;;;33.27;18.90;;;17.60;64.10;;;;;;4375230;28;658838;-67
2021/09/04 07:49:20;;;;;;;30.20;18.47;;;17.80;55.70;;;;;;4393270;28;659587;-68
2021/09/04 07:52:08;;;;;;;31.40;16.83;;;18.00;47.50;;;;;;4374131;28;659423;-68
2021/09/04 07:54:57;;;;;;;30.77;17.27;;;18.40;48.40;;;;;;4393079;28;659971;-68
2021/09/04 07:57:45;;;;;;;32.43;18.33;;;18.70;37.90;;;;;;4370395;28;659858;-68
2021/09/04 08:00:32;;;;;;;31.67;17.20;;;18.80;7.70;;;;;;4378513;28;659033;-68
2021/09/04 08:03:20;;;;;;;30.07;18.37;;;18.80;1.00;;;;;;4397451;28;658432;-67
2021/09/04 08:06:08;;;;;;;31.40;17.23;;;19.20;1.00;;;;;;4375000;28;658280;-67
2021/09/04 08:08:55;;;;;;;25.43;16.27;;;19.40;1.00;;;;;;4397560;28;658367;-68
2021/09/04 08:11:44;;;;;;;29.83;17.13;;;19.60;1.00;;;;;;4375356;28;657628;-68
2021/09/04 08:14:33;;;;;;;29.50;17.50;;;20.00;1.00;;;;;;4390279;28;657660;-68
2021/09/04 08:17:20;;;;;;;30.03;16.20;;;20.10;99.90;;;;;;4394019;28;658538;-68
2021/09/04 08:20:09;;;;;;;28.03;16.73;;;20.20;99.90;;;;;;4372579;28;658363;-68
2021/09/04 08:22:57;;;;;;;28.57;15.80;;;19.70;99.90;;;;;;4392523;28;658622;-68
2021/09/04 08:25:45;;;;;;;24.47;15.20;;;19.90;99.90;;;;;;4370421;28;659680;-68
2021/09/04 08:28:34;;;;;;;26.97;15.07;;;20.10;99.90;;;;;;4378067;28;659077;-68
2021/09/04 08:31:21;;;;;;;25.00;13.10;;;20.30;99.90;;;;;;4392292;28;659200;-68
2021/09/04 08:34:09;;;;;;;29.40;14.40;;;20.30;99.90;;;;;;4373588;28;659326;-68
2021/09/04 08:36:56;;;;;;;29.50;17.63;;;20.40;99.90;;;;;;4393210;28;659486;-68
2021/09/04 08:39:44;;;;;;;28.60;16.03;;;20.50;99.90;;;;;;4373995;28;659686;-68
2021/09/04 08:42:32;;;;;;;29.83;15.97;;;20.40;99.90;;;;;;4391711;28;659434;-68
2021/09/04 08:45:20;;;;;;;27.13;13.67;;;20.50;99.90;;;;;;4369326;28;659875;-68
2021/09/04 08:48:09;;;;;;;29.90;18.63;;;20.70;99.90;;;;;;4367805;28;658312;-68
2021/09/04 08:50:56;;;;;;;34.00;18.70;;;20.60;99.90;;;;;;4392358;28;658900;-68
2021/09/04 08:53:44;;;;;;;30.73;17.77;;;20.50;99.90;;;;;;4371901;28;660071;-68
2021/09/04 08:56:32;;;;;;;27.10;16.27;;;20.40;83.30;;;;;;4391607;28;658681;-68
2021/09/04 08:59:19;;;;;;;31.70;17.83;;;20.60;39.60;;;;;;4369918;28;660294;-68
2021/09/04 09:02:14;;;;;;;26.90;16.60;;;20.70;9.00;;;;;;4392489;28;658836;-68
2021/09/04 09:05:03;;;;;;;30.47;17.10;;;20.90;13.90;;;;;;4363815;28;657683;-68
2021/09/04 09:07:50;;;;;;;39.27;20.10;;;20.90;28.50;;;;;;4369614;28;658804;-68
2021/09/04 09:10:40;;;;;;;40.73;22.03;;;20.90;3.50;;;;;;4367772;28;659574;-68
2021/09/04 09:13:28;;;;;;;37.27;20.53;;;20.90;1.00;;;;;;4376087;28;657866;-68
2021/09/04 09:16:15;;;;;;;40.83;20.50;;;20.70;1.00;;;;;;4393743;28;659132;-68
2021/09/04 09:19:06;;;;;;;29.57;17.63;;;20.70;1.00;;;;;;4373414;28;657381;-67
2021/09/04 09:21:56;;;;;;;33.27;18.47;;;20.50;1.00;;;;;;4374576;28;657902;-67
2021/09/04 09:24:43;;;;;;;38.53;18.17;;;20.00;1.00;;;;;;4372469;28;657709;-67
2021/09/04 09:27:31;;;;;;;32.43;18.20;;;19.90;1.00;;;;;;4392912;28;658604;-67
2021/09/04 09:30:20;;;;;;;26.70;14.67;;;20.10;1.00;;;;;;4374500;28;657883;-68
2021/09/04 09:33:08;;;;;;;26.40;15.73;;;20.60;1.00;;;;;;4375261;28;657876;-67
2021/09/04 09:36:03;;;;;;;31.20;15.97;;;21.20;1.00;;;;;;4392775;28;657748;-68
2021/09/04 09:38:52;;;;;;;27.50;15.80;;;21.40;1.00;;;;;;4370622;28;658349;-68
2021/09/04 09:41:47;;;;;;;28.83;16.33;;;21.90;1.00;;;;;;4369833;28;657975;-68
2021/09/04 09:44:36;;;;;;;29.07;14.23;;;21.90;1.00;;;;;;4369497;28;658215;-68
2021/09/04 09:47:24;;;;;;;29.00;14.87;;;22.20;1.00;;;;;;4370367;28;658675;-68
2021/09/04 09:50:12;;;;;;;20.47;12.93;;;22.70;1.00;;;;;;4391600;28;657686;-68
2021/09/04 09:53:01;;;;;;;22.50;12.47;;;22.90;99.90;;;;;;4392940;28;658321;-68
2021/09/04 09:55:50;;;;;;;28.70;15.87;;;23.50;1.00;;;;;;4372379;28;659293;-68
2021/09/04 09:58:38;;;;;;;24.80;13.97;;;23.60;99.90;;;;;;4374968;28;657492;-68
2021/09/04 10:01:25;;;;;;;20.73;12.47;;;23.60;99.90;;;;;;4391507;28;659068;-68
2021/09/04 10:04:13;;;;;;;25.33;12.63;;;23.60;99.90;;;;;;4372324;28;658528;-68
2021/09/04 10:07:01;;;;;;;20.27;12.30;;;23.30;99.90;;;;;;4391972;28;659313;-68
2021/09/04 10:09:51;;;;;;;19.33;11.60;;;23.10;99.90;;;;;;4368992;28;659968;-67
2021/09/04 10:12:38;;;;;;;24.03;12.97;;;23.40;99.90;;;;;;4370886;28;658442;-68
2021/09/04 10:15:26;;;;;;;27.48;13.57;;;23.60;99.90;;;;;;4391007;28;660223;-68
2021/09/04 10:18:14;;;;;;;22.42;11.75;;;23.50;1.00;;;;;;4368672;28;659620;-68
2021/09/04 10:21:08;;;;;;;24.15;12.10;;;24.00;1.00;;;;;;4392134;28;658325;-68
2021/09/04 10:23:55;;;;;;;25.30;14.45;;;23.80;1.00;;;;;;4369823;28;658016;-68
2021/09/04 10:26:44;;;;;;;28.07;14.43;;;23.20;92.30;;;;;;4373591;28;657807;-68
2021/09/04 10:29:32;;;;;;;25.87;13.93;;;22.80;99.90;;;;;;4384885;28;658555;-67
2021/09/04 10:32:20;;;;;;;21.20;12.83;;;22.40;99.90;;;;;;4394969;28;659456;-67
2021/09/04 10:35:08;;;;;;;24.50;13.10;;;22.30;1.00;;;;;;4372555;28;658988;-67
2021/09/04 10:37:56;;;;;;;18.97;11.90;;;22.60;1.00;;;;;;4395919;28;658508;-67
2021/09/04 10:40:43;;;;;;;21.40;11.63;;;23.00;1.00;;;;;;4373859;28;657725;-68
2021/09/04 10:43:32;;;;;;;20.77;11.50;;;23.50;99.90;;;;;;4392937;28;657370;-68
2021/09/04 10:46:20;;;;;;;17.58;10.65;;;24.00;99.90;;;;;;4368427;28;660009;-68
2021/09/04 10:49:08;;;;;;;14.88;9.20;;;24.80;1.00;;;;;;4372149;28;658666;-68
2021/09/04 10:51:56;;;;;;;13.02;8.63;;;25.30;1.00;;;;;;4393527;28;657425;-68
2021/09/04 10:55:04;;;;;;;15.65;9.73;;;25.10;1.00;;;;;;4374338;28;656968;-68
2021/09/04 10:57:53;;;;;;;15.80;10.13;;;25.20;99.90;;;;;;4373035;28;656724;-68
2021/09/04 11:00:42;;;;;;;17.50;10.25;;;25.20;99.90;;;;;;4370794;28;659085;-68
2021/09/04 11:03:33;;;;;;;19.13;10.88;;;24.80;99.90;;;;;;4370794;28;659940;-68
2021/09/04 11:06:21;;;;;;;17.30;10.55;;;24.90;99.90;;;;;;4371408;28;660009;-68
2021/09/04 11:09:08;;;;;;;18.80;10.82;;;25.30;99.90;;;;;;4368601;28;658706;-68
2021/09/04 11:11:57;;;;;;;22.75;11.52;;;25.60;64.40;;;;;;4394084;28;659476;-68
2021/09/04 11:14:50;;;;;;;21.30;12.82;;;25.70;25.40;;;;;;4371309;28;660057;-67
2021/09/04 11:17:45;;;;;;;18.50;11.43;;;25.60;99.90;;;;;;4352116;28;659058;-67
2021/09/04 11:20:44;;;;;;;24.35;12.70;;;25.00;99.90;;;;;;4352277;28;659746;-67
2021/09/04 11:23:33;;;;;;;26.10;12.27;;;24.70;1.00;;;;;;4389915;28;658573;-67
2021/09/04 11:26:20;;;;;;;22.23;12.70;;;24.10;1.00;;;;;;4395131;28;658590;-67
2021/09/04 11:29:08;;;;;;;21.90;12.82;;;23.70;1.00;;;;;;4376152;28;657353;-67
2021/09/04 11:31:57;;;;;;;23.27;12.18;;;23.40;99.90;;;;;;4394500;28;658682;-67
2021/09/04 11:34:48;;;;;;;21.08;12.40;;;23.10;99.90;;;;;;4370764;28;659359;-67
2021/09/04 11:37:36;;;;;;;19.45;12.35;;;22.80;1.00;;;;;;4370554;28;659423;-67
2021/09/04 11:40:25;;;;;;;23.00;13.27;;;22.90;86.20;;;;;;4376075;28;657566;-67
2021/09/04 11:43:14;;;;;;;21.55;13.35;;;23.20;99.90;;;;;;4374696;28;658554;-67
2021/09/04 11:46:02;;;;;;;22.30;13.20;;;23.60;1.00;;;;;;4394029;28;659266;-67
2021/09/04 11:48:50;;;;;;;19.23;11.73;;;24.30;1.00;;;;;;4371340;28;659092;-67
2021/09/04 11:51:40;;;;;;;20.33;12.45;;;24.90;99.90;;;;;;4375601;28;657321;-67
2021/09/04 11:54:28;;;;;;;18.63;12.25;;;25.20;1.00;;;;;;4378731;28;658674;-67
2021/09/04 11:57:26;;;;;;;18.75;12.98;;;25.90;1.00;;;;;;4394405;28;658252;-67
2021/09/04 12:00:16;;;;;;;20.42;11.82;;;26.60;99.90;;;;;;4375932;28;657384;-67
2021/09/04 12:03:04;;;;;;;17.08;10.90;;;26.70;99.90;;;;;;4374245;28;658461;-67
2021/09/04 12:05:54;;;;;;;16.50;10.63;;;26.70;99.90;;;;;;4385545;28;658687;-67
2021/09/04 12:08:43;;;;;;;17.08;11.48;;;25.70;99.90;;;;;;4392925;28;658866;-67
2021/09/04 12:11:30;;;;;;;23.05;12.13;;;25.00;99.90;;;;;;4370405;28;659452;-67
2021/09/04 12:14:18;;;;;;;18.02;11.60;;;24.40;99.90;;;;;;4374674;28;659187;-67
2021/09/04 12:17:06;;;;;;;18.52;10.93;;;23.70;1.00;;;;;;4393137;28;659881;-66
2021/09/04 12:19:55;;;;;;;21.77;12.15;;;23.30;1.00;;;;;;4375936;28;658106;-66
2021/09/04 12:22:42;;;;;;;21.73;11.55;;;23.10;1.00;;;;;;4375569;28;657435;-66
2021/09/04 12:25:39;;;;;;;22.13;11.55;;;22.90;1.00;;;;;;4394769;28;659006;-67
2021/09/04 12:28:31;;;;;;;21.20;11.65;;;23.00;99.90;;;;;;4393747;28;657408;-67
2021/09/04 12:31:19;;;;;;;15.98;11.32;;;23.70;1.00;;;;;;4373637;28;658532;-67
2021/09/04 12:34:07;;;;;;;19.48;12.20;;;24.30;99.90;;;;;;4393787;28;657597;-67
2021/09/04 12:36:54;;;;;;;18.63;11.98;;;24.80;1.00;;;;;;4374292;28;659963;-67
2021/09/04 12:39:42;;;;;;;19.23;11.48;;;25.00;1.00;;;;;;4389736;28;657855;-67
2021/09/04 12:42:31;;;;;;;18.98;11.52;;;25.60;1.00;;;;;;4397528;28;657635;-67
2021/09/04 12:45:19;;;;;;;18.73;11.73;;;25.80;99.90;;;;;;4375896;28;658244;-67
2021/09/04 12:48:07;;;;;;;17.95;11.02;;;26.50;99.90;;;;;;4392592;28;658937;-67
2021/09/04 12:51:09;;;;;;;18.27;11.43;;;26.80;99.90;;;;;;4373879;28;659547;-67
2021/09/04 12:54:03;;;;;;;22.20;11.82;;;27.00;12.10;;;;;;4369454;28;658722;-67
2021/09/04 12:56:50;;;;;;;17.25;10.95;;;27.10;1.00;;;;;;4369671;28;658691;-67
2021/09/04 12:59:50;;;;;;;16.75;11.32;;;26.90;1.00;;;;;;4375223;28;657652;-67
2021/09/04 13:02:39;;;;;;;18.27;11.15;;;27.00;1.00;;;;;;4347919;28;658220;-67
2021/09/04 13:05:26;;;;;;;16.15;10.48;;;27.10;1.00;;;;;;4393150;28;657218;-66
2021/09/04 13:08:14;;;;;;;18.27;10.55;;;27.10;1.00;;;;;;4371054;28;658570;-67
2021/09/04 13:11:01;;;;;;;14.00;9.83;;;26.70;1.00;;;;;;4424485;28;657601;-67
2021/09/04 13:13:49;;;;;;;17.25;10.80;;;26.90;1.00;;;;;;4375434;28;656635;-67
2021/09/04 13:16:38;;;;;;;17.40;11.45;;;27.30;1.00;;;;;;4393461;28;657766;-67
2021/09/04 13:19:26;;;;;;;17.23;11.27;;;27.70;1.00;;;;;;4371020;28;659227;-67
2021/09/04 13:22:13;;;;;;;15.85;10.35;;;27.80;1.00;;;;;;4370481;28;657701;-67
2021/09/04 13:25:01;;;;;;;16.63;10.85;;;27.40;1.00;;;;;;4387350;28;658332;-67
2021/09/04 13:27:49;;;;;;;17.77;10.85;;;27.30;99.90;;;;;;4374969;28;657555;-67
2021/09/04 13:30:36;;;;;;;18.23;11.07;;;27.70;1.00;;;;;;4392280;28;658752;-67
2021/09/04 13:33:32;;;;;;;17.35;10.43;;;27.40;99.90;;;;;;4374552;28;658409;-66
2021/09/04 13:36:20;;;;;;;17.73;10.27;;;26.50;99.90;;;;;;4346592;28;660296;-67
2021/09/04 13:39:08;;;;;;;15.55;10.65;;;26.20;99.90;;;;;;4375701;28;658609;-67
2021/09/04 13:41:55;;;;;;;18.13;11.27;;;25.80;99.90;;;;;;4391730;28;659421;-67
2021/09/04 13:44:43;;;;;;;20.08;11.38;;;25.10;99.90;;;;;;4373422;28;658942;-66
2021/09/04 13:47:30;;;;;;;20.33;11.23;;;24.80;99.90;;;;;;4395625;28;659045;-66
2021/09/04 13:50:19;;;;;;;21.67;11.68;;;24.00;1.00;;;;;;4372855;28;658787;-66
2021/09/04 13:53:07;;;;;;;21.73;11.50;;;23.80;1.00;;;;;;4392539;28;657121;-66
2021/09/04 13:55:54;;;;;;;21.15;13.02;;;23.60;1.00;;;;;;4370220;28;658900;-66
2021/09/04 13:58:42;;;;;;;20.20;12.18;;;23.40;99.90;;;;;;4389620;28;657530;-66
2021/09/04 14:01:30;;;;;;;25.38;16.15;;;23.10;99.90;;;;;;4391427;28;660189;-66
2021/09/04 14:04:18;;;;;;;21.65;14.82;;;22.90;99.90;;;;;;4373250;28;658438;-66
2021/09/04 14:07:09;;;;;;;22.17;14.85;;;23.00;99.90;;;;;;4385328;28;659132;-66